createdAt,value
2016-04-22T00:00:35.163Z,0
2016-04-22T00:01:35.213Z,0
2016-04-22T00:02:35.278Z,0
2016-04-22T00:03:35.316Z,0
2016-04-22T00:04:35.386Z,0
2016-04-22T00:05:35.436Z,0
2016-04-22T00:06:35.486Z,0
2016-04-22T00:07:35.536Z,0
2016-04-22T00:08:35.600Z,0
2016-04-22T00:09:35.634Z,0
2016-04-22T00:10:35.684Z,0
2016-04-22T00:11:35.749Z,0
2016-04-22T00:12:35.642Z,0
2016-04-22T00:13:35.833Z,0
2016-04-22T00:14:35.898Z,0
2016-04-22T00:15:35.947Z,0
2016-04-22T00:16:35.997Z,0
2016-04-22T00:17:36.046Z,0
2016-04-22T00:18:36.097Z,0
2016-04-22T00:19:36.161Z,0
2016-04-22T00:20:36.196Z,0
2016-04-22T00:21:36.244Z,0
2016-04-22T00:22:36.310Z,0
2016-04-22T00:23:36.375Z,0
2016-04-22T00:24:36.394Z,0
2016-04-22T00:25:36.459Z,0
2016-04-22T00:26:36.508Z,0
2016-04-22T00:27:36.590Z,0
2016-04-22T00:28:36.654Z,0
2016-04-22T00:29:36.673Z,0
2016-04-22T00:30:36.723Z,0
2016-04-22T00:31:36.757Z,0
2016-04-22T00:32:36.837Z,0
2016-04-22T00:33:36.887Z,0
2016-04-22T00:34:36.920Z,0
2016-04-22T00:35:36.986Z,0
2016-04-22T00:36:37.036Z,0
2016-04-22T00:37:37.071Z,0
2016-04-22T00:38:37.120Z,0
2016-04-22T00:39:37.185Z,0
2016-04-22T00:40:37.219Z,0
2016-04-22T00:41:37.285Z,0
2016-04-22T00:42:37.209Z,0
2016-04-22T00:43:37.382Z,0
2016-04-22T00:44:36.683Z,0
2016-04-22T00:45:37.482Z,0
2016-04-22T00:46:37.532Z,0
2016-04-22T00:47:37.581Z,0
2016-04-22T00:48:37.631Z,0
2016-04-22T00:49:37.711Z,0
2016-04-22T00:50:37.746Z,0
2016-04-22T00:51:37.779Z,0
2016-04-22T00:52:37.845Z,0
2016-04-22T00:53:37.895Z,0
2016-04-22T00:54:37.945Z,0
2016-04-22T00:55:37.244Z,0
2016-04-22T00:56:38.074Z,0
2016-04-22T00:57:38.155Z,0
2016-04-22T00:58:38.142Z,0
2016-04-22T00:59:38.208Z,0
2016-04-22T01:00:38.257Z,0
2016-04-22T01:01:38.306Z,0
2016-04-22T01:02:38.355Z,0
2016-04-22T01:03:38.421Z,0
2016-04-22T01:04:38.455Z,0
2016-04-22T01:05:38.521Z,0
2016-04-22T01:06:38.569Z,0
2016-04-22T01:07:38.619Z,0
2016-04-22T01:08:38.685Z,0
2016-04-22T01:09:38.718Z,0
2016-04-22T01:10:38.768Z,0
2016-04-22T01:11:38.833Z,0
2016-04-22T01:12:38.915Z,0
2016-04-22T01:13:38.917Z,0
2016-04-22T01:14:38.982Z,0
2016-04-22T01:15:39.048Z,0
2016-04-22T01:16:39.065Z,0
2016-04-22T01:17:39.131Z,0
2016-04-22T01:18:39.196Z,0
2016-04-22T01:19:39.229Z,0
2016-04-22T01:20:39.311Z,0
2016-04-22T01:21:39.345Z,0
2016-04-22T01:22:39.395Z,0
2016-04-22T01:23:39.459Z,0
2016-04-22T01:24:39.478Z,0
2016-04-22T01:25:39.543Z,0
2016-04-22T01:26:39.592Z,0
2016-04-22T01:27:39.673Z,0
2016-04-22T01:28:39.692Z,0
2016-04-22T01:29:39.756Z,0
2016-04-22T01:30:39.806Z,0
2016-04-22T01:31:39.872Z,0
2016-04-22T01:32:39.905Z,0
2016-04-22T01:33:39.814Z,0
2016-04-22T01:34:40.005Z,0
2016-04-22T01:35:39.914Z,0
2016-04-22T01:36:40.088Z,0
2016-04-22T01:37:40.153Z,0
2016-04-22T01:38:40.219Z,0
2016-04-22T01:39:40.252Z,0
2016-04-22T01:40:40.318Z,0
2016-04-22T01:41:40.368Z,0
2016-04-22T01:42:40.433Z,0
2016-04-22T01:43:40.466Z,0
2016-04-22T01:44:40.532Z,0
2016-04-22T01:45:39.831Z,0
2016-04-22T01:46:40.631Z,0
2016-04-22T01:47:40.665Z,0
2016-04-22T01:48:40.730Z,0
2016-04-22T01:49:40.764Z,0
2016-04-22T01:50:40.829Z,0
2016-04-22T01:51:40.895Z,0
2016-04-22T01:52:40.912Z,0
2016-04-22T01:53:40.978Z,0
2016-04-22T01:54:41.043Z,0
2016-04-22T01:55:41.077Z,0
2016-04-22T01:56:41.158Z,0
2016-04-22T01:57:41.192Z,0
2016-04-22T01:58:41.256Z,0
2016-04-22T01:59:41.291Z,0
2016-04-22T02:00:41.340Z,0
2016-04-22T02:01:41.390Z,0
2016-04-22T02:02:41.455Z,0
2016-04-22T02:03:41.505Z,0
2016-04-22T02:04:41.555Z,0
2016-04-22T02:05:41.619Z,0
2016-04-22T02:06:41.653Z,0
2016-04-22T02:07:41.703Z,0
2016-04-22T02:08:41.769Z,0
2016-04-22T02:09:41.818Z,0
2016-04-22T02:10:41.852Z,0
2016-04-22T02:11:41.902Z,0
2016-04-22T02:12:41.951Z,0
2016-04-22T02:13:42.000Z,0
2016-04-22T02:14:42.066Z,0
2016-04-22T02:15:42.115Z,0
2016-04-22T02:16:42.149Z,0
2016-04-22T02:17:42.215Z,0
2016-04-22T02:18:42.263Z,0
2016-04-22T02:19:42.313Z,0
2016-04-22T02:20:42.379Z,0
2016-04-22T02:21:42.429Z,0
2016-04-22T02:22:42.478Z,0
2016-04-22T02:23:42.527Z,0
2016-04-22T02:24:42.592Z,0
2016-04-22T02:25:42.626Z,0
2016-04-22T02:26:42.676Z,0
2016-04-22T02:27:42.742Z,0
2016-04-22T02:28:42.775Z,0
2016-04-22T02:29:42.840Z,0
2016-04-22T02:30:42.890Z,0
2016-04-22T02:31:42.939Z,0
2016-04-22T02:32:43.005Z,0
2016-04-22T02:33:43.053Z,0
2016-04-22T02:34:43.072Z,0
2016-04-22T02:35:43.153Z,0
2016-04-22T02:36:43.172Z,0
2016-04-22T02:37:43.252Z,0
2016-04-22T02:38:43.271Z,0
2016-04-22T02:39:43.352Z,0
2016-04-22T02:40:43.385Z,0
2016-04-22T02:41:43.419Z,0
2016-04-22T02:42:43.516Z,0
2016-04-22T02:43:43.550Z,0
2016-04-22T02:44:43.568Z,0
2016-04-22T02:45:43.649Z,0
2016-04-22T02:46:43.698Z,0
2016-04-22T02:47:43.732Z,0
2016-04-22T02:48:43.798Z,0
2016-04-22T02:49:43.862Z,0
2016-04-22T02:50:43.881Z,0
2016-04-22T02:51:43.962Z,0
2016-04-22T02:52:43.980Z,0
2016-04-22T02:53:43.311Z,0
2016-04-22T02:54:44.126Z,0
2016-04-22T02:55:44.159Z,0
2016-04-22T02:56:44.226Z,0
2016-04-22T02:57:44.276Z,0
2016-04-22T02:58:44.292Z,0
2016-04-22T02:59:44.359Z,0
2016-04-22T03:00:44.408Z,0
2016-04-22T03:01:44.473Z,0
2016-04-22T03:02:44.507Z,0
2016-04-22T03:03:44.603Z,0
2016-04-22T03:04:44.606Z,0
2016-04-22T03:05:44.686Z,0
2016-04-22T03:06:44.705Z,0
2016-04-22T03:07:44.599Z,0
2016-04-22T03:08:44.835Z,0
2016-04-22T03:09:44.885Z,0
2016-04-22T03:10:44.919Z,0
2016-04-22T03:11:44.985Z,0
2016-04-22T03:12:45.050Z,0
2016-04-22T03:13:45.068Z,0
2016-04-22T03:14:45.149Z,0
2016-04-22T03:15:45.214Z,0
2016-04-22T03:16:45.263Z,0
2016-04-22T03:17:45.282Z,0
2016-04-22T03:18:45.332Z,0
2016-04-22T03:19:45.396Z,0
2016-04-22T03:20:45.415Z,0
2016-04-22T03:21:45.480Z,0
2016-04-22T03:22:45.545Z,0
2016-04-22T03:23:45.595Z,0
2016-04-22T03:24:45.645Z,0
2016-04-22T03:25:45.710Z,0
2016-04-22T03:26:45.760Z,0
2016-04-22T03:27:45.793Z,0
2016-04-22T03:28:45.718Z,0
2016-04-22T03:29:45.892Z,0
2016-04-22T03:30:45.957Z,0
2016-04-22T03:31:46.023Z,0
2016-04-22T03:32:46.041Z,0
2016-04-22T03:33:46.106Z,0
2016-04-22T03:34:46.171Z,0
2016-04-22T03:35:46.189Z,0
2016-04-22T03:36:46.255Z,0
2016-04-22T03:37:46.319Z,0
2016-04-22T03:38:46.354Z,0
2016-04-22T03:39:46.403Z,0
2016-04-22T03:40:46.469Z,0
2016-04-22T03:41:46.519Z,0
2016-04-22T03:42:46.583Z,0
2016-04-22T03:43:46.602Z,0
2016-04-22T03:44:46.652Z,0
2016-04-22T03:45:46.732Z,0
2016-04-22T03:46:46.766Z,0
2016-04-22T03:47:46.816Z,0
2016-04-22T03:48:46.880Z,0
2016-04-22T03:49:46.930Z,0
2016-04-22T03:50:46.964Z,0
2016-04-22T03:51:47.045Z,0
2016-04-22T03:52:47.079Z,0
2016-04-22T03:53:47.129Z,0
2016-04-22T03:54:47.194Z,0
2016-04-22T03:55:47.244Z,0
2016-04-22T03:56:47.293Z,0
2016-04-22T03:57:47.327Z,0
2016-04-22T03:58:47.376Z,0
2016-04-22T03:59:47.489Z,0
2016-04-22T04:00:47.492Z,0
2016-04-22T04:01:47.525Z,0
2016-04-22T04:02:47.590Z,0
2016-04-22T04:03:47.655Z,0
2016-04-22T04:04:47.689Z,0
2016-04-22T04:05:47.755Z,0
2016-04-22T04:06:47.803Z,0
2016-04-22T04:07:47.839Z,0
2016-04-22T04:08:47.888Z,0
2016-04-22T04:09:47.969Z,0
2016-04-22T04:10:48.003Z,0
2016-04-22T04:11:48.052Z,0
2016-04-22T04:12:48.117Z,0
2016-04-22T04:13:48.151Z,0
2016-04-22T04:14:48.216Z,0
2016-04-22T04:15:48.266Z,0
2016-04-22T04:16:48.315Z,0
2016-04-22T04:17:48.349Z,0
2016-04-22T04:18:48.446Z,0
2016-04-22T04:19:48.479Z,0
2016-04-22T04:20:48.513Z,0
2016-04-22T04:21:48.251Z,0
2016-04-22T04:22:48.658Z,0
2016-04-22T04:23:48.731Z,0
2016-04-22T04:24:48.805Z,0
2016-04-22T04:25:48.924Z,0
2016-04-22T04:26:49.028Z,0
2016-04-22T04:27:48.325Z,0
2016-04-22T04:28:49.123Z,0
2016-04-22T04:29:48.469Z,0
2016-04-22T04:30:49.282Z,0
2016-04-22T04:31:49.331Z,0
2016-04-22T04:32:49.422Z,0
2016-04-22T04:33:49.445Z,0
2016-04-22T04:34:49.516Z,0
2016-04-22T04:35:49.570Z,0
2016-04-22T04:36:49.610Z,0
2016-04-22T04:37:49.693Z,0
2016-04-22T04:38:49.729Z,0
2016-04-22T04:39:49.766Z,0
2016-04-22T04:40:49.707Z,0
2016-04-22T04:41:49.900Z,4
2016-04-22T04:42:49.919Z,4
2016-04-22T04:43:49.985Z,4
2016-04-22T04:44:50.050Z,4
2016-04-22T04:45:50.084Z,4
2016-04-22T04:46:50.166Z,4
2016-04-22T04:47:50.200Z,4
2016-04-22T04:48:50.235Z,4
2016-04-22T04:49:50.301Z,0
2016-04-22T04:50:50.335Z,0
2016-04-22T04:51:50.400Z,0
2016-04-22T04:52:50.466Z,0
2016-04-22T04:53:50.516Z,0
2016-04-22T04:54:50.549Z,0
2016-04-22T04:55:50.630Z,0
2016-04-22T04:56:50.679Z,0
2016-04-22T04:57:50.698Z,0
2016-04-22T04:58:50.779Z,0
2016-04-22T04:59:50.796Z,4
2016-04-22T05:00:50.877Z,4
2016-04-22T05:01:50.912Z,4
2016-04-22T05:02:50.961Z,4
2016-04-22T05:03:51.026Z,4
2016-04-22T05:04:51.092Z,4
2016-04-22T05:05:51.110Z,4
2016-04-22T05:06:51.176Z,4
2016-04-22T05:07:51.240Z,0
2016-04-22T05:08:51.259Z,0
2016-04-22T05:09:51.324Z,4
2016-04-22T05:10:51.390Z,4
2016-04-22T05:11:51.440Z,4
2016-04-22T05:12:51.317Z,4
2016-04-22T05:13:51.523Z,4
2016-04-22T05:14:51.604Z,4
2016-04-22T05:15:51.638Z,4
2016-04-22T05:16:51.687Z,4
2016-04-22T05:17:51.753Z,4
2016-04-22T05:18:51.802Z,4
2016-04-22T05:19:51.837Z,4
2016-04-22T05:20:51.901Z,8
2016-04-22T05:21:51.951Z,8
2016-04-22T05:22:51.970Z,4
2016-04-22T05:23:52.050Z,4
2016-04-22T05:24:51.334Z,4
2016-04-22T05:25:52.149Z,4
2016-04-22T05:26:52.214Z,4
2016-04-22T05:27:52.233Z,4
2016-04-22T05:28:52.345Z,4
2016-04-22T05:29:52.363Z,4
2016-04-22T05:30:52.381Z,4
2016-04-22T05:31:52.447Z,4
2016-04-22T05:32:52.511Z,4
2016-04-22T05:33:52.546Z,4
2016-04-22T05:34:52.580Z,4
2016-04-22T05:35:52.660Z,4
2016-04-22T05:36:52.710Z,4
2016-04-22T05:37:52.760Z,4
2016-04-22T05:38:52.810Z,4
2016-04-22T05:39:52.844Z,4
2016-04-22T05:40:52.923Z,4
2016-04-22T05:41:52.958Z,4
2016-04-22T05:42:53.007Z,4
2016-04-22T05:43:53.104Z,4
2016-04-22T05:44:53.138Z,4
2016-04-22T05:45:53.171Z,8
2016-04-22T05:46:53.221Z,8
2016-04-22T05:47:53.287Z,8
2016-04-22T05:48:53.320Z,8
2016-04-22T05:49:53.370Z,8
2016-04-22T05:50:53.419Z,8
2016-04-22T05:51:53.469Z,8
2016-04-22T05:52:53.534Z,8
2016-04-22T05:53:53.583Z,4
2016-04-22T05:54:53.617Z,4
2016-04-22T05:55:53.683Z,8
2016-04-22T05:56:53.748Z,4
2016-04-22T05:57:53.766Z,4
2016-04-22T05:58:53.879Z,4
2016-04-22T05:59:53.897Z,4
2016-04-22T06:00:53.931Z,4
2016-04-22T06:01:53.980Z,8
2016-04-22T06:02:54.045Z,8
2016-04-22T06:03:54.080Z,8
2016-04-22T06:04:54.145Z,8
2016-04-22T06:05:54.194Z,4
2016-04-22T06:06:54.228Z,4
2016-04-22T06:07:54.309Z,8
2016-04-22T06:08:54.359Z,8
2016-04-22T06:09:54.392Z,8
2016-04-22T06:10:54.457Z,8
2016-04-22T06:11:54.507Z,12
2016-04-22T06:12:54.557Z,12
2016-04-22T06:13:54.465Z,12
2016-04-22T06:14:54.657Z,12
2016-04-22T06:15:54.720Z,8
2016-04-22T06:16:54.754Z,8
2016-04-22T06:17:54.789Z,12
2016-04-22T06:18:54.870Z,12
2016-04-22T06:19:54.919Z,12
2016-04-22T06:20:54.937Z,12
2016-04-22T06:21:55.050Z,8
2016-04-22T06:22:55.083Z,8
2016-04-22T06:23:55.101Z,12
2016-04-22T06:24:55.151Z,12
2016-04-22T06:25:55.232Z,12
2016-04-22T06:26:55.267Z,8
2016-04-22T06:27:55.300Z,12
2016-04-22T06:28:55.444Z,12
2016-04-22T06:29:55.430Z,8
2016-04-22T06:30:55.496Z,12
2016-04-22T06:31:54.764Z,12
2016-04-22T06:32:55.595Z,12
2016-04-22T06:33:55.629Z,12
2016-04-22T06:34:55.663Z,12
2016-04-22T06:35:55.728Z,12
2016-04-22T06:36:55.778Z,16
2016-04-22T06:37:55.811Z,16
2016-04-22T06:38:55.877Z,16
2016-04-22T06:39:55.785Z,16
2016-04-22T06:40:55.835Z,16
2016-04-22T06:41:56.041Z,20
2016-04-22T06:42:56.090Z,20
2016-04-22T06:43:56.015Z,16
2016-04-22T06:44:56.190Z,16
2016-04-22T06:45:56.271Z,28
2016-04-22T06:46:56.273Z,12
2016-04-22T06:47:56.370Z,20
2016-04-22T06:48:56.404Z,20
2016-04-22T06:49:56.438Z,32
2016-04-22T06:50:56.565Z,16
2016-04-22T06:51:56.552Z,32
2016-04-22T06:52:56.586Z,20
2016-04-22T06:53:56.652Z,28
2016-04-22T06:54:56.684Z,16
2016-04-22T06:55:56.781Z,24
2016-04-22T06:56:56.800Z,32
2016-04-22T06:57:56.834Z,32
2016-04-22T06:58:56.931Z,36
2016-04-22T06:59:56.809Z,32
2016-04-22T07:00:57.014Z,36
2016-04-22T07:01:57.063Z,36
2016-04-22T07:02:57.128Z,36
2016-04-22T07:03:57.163Z,32
2016-04-22T07:04:57.228Z,36
2016-04-22T07:05:57.277Z,36
2016-04-22T07:06:57.796Z,36
2016-04-22T07:07:57.361Z,36
2016-04-22T07:08:57.410Z,32
2016-04-22T07:09:57.475Z,32
2016-04-22T07:10:57.369Z,32
2016-04-22T07:11:57.560Z,28
2016-04-22T07:12:57.641Z,28
2016-04-22T07:13:57.705Z,32
2016-04-22T07:14:57.708Z,32
2016-04-22T07:15:57.773Z,36
2016-04-22T07:16:57.854Z,32
2016-04-22T07:17:57.872Z,32
2016-04-22T07:18:57.921Z,40
2016-04-22T07:19:57.987Z,36
2016-04-22T07:20:58.021Z,24
2016-04-22T07:21:58.117Z,40
2016-04-22T07:22:58.151Z,36
2016-04-22T07:23:58.170Z,36
2016-04-22T07:24:58.250Z,28
2016-04-22T07:25:58.284Z,16
2016-04-22T07:26:58.334Z,16
2016-04-22T07:27:58.398Z,16
2016-04-22T07:28:58.480Z,24
2016-04-22T07:29:58.483Z,20
2016-04-22T07:30:58.548Z,20
2016-04-22T07:31:58.598Z,20
2016-04-22T07:32:58.616Z,24
2016-04-22T07:33:58.711Z,20
2016-04-22T07:34:58.793Z,16
2016-04-22T07:35:58.780Z,16
2016-04-22T07:36:58.861Z,20
2016-04-22T07:37:58.926Z,20
2016-04-22T07:38:58.928Z,28
2016-04-22T07:40:00.244Z,20
2016-04-22T07:40:59.059Z,24
2016-04-22T07:41:59.093Z,40
2016-04-22T07:42:59.143Z,32
2016-04-22T07:43:59.333Z,28
2016-04-22T07:44:59.241Z,28
2016-04-22T07:45:59.307Z,24
2016-04-22T07:46:59.357Z,28
2016-04-22T07:47:59.406Z,28
2016-04-22T07:48:59.487Z,24
2016-04-22T07:49:59.521Z,24
2016-04-22T07:50:59.554Z,24
2016-04-22T07:51:59.635Z,20
2016-04-22T07:52:59.685Z,20
2016-04-22T07:53:59.703Z,16
2016-04-22T07:54:59.784Z,16
2016-04-22T07:55:59.849Z,16
2016-04-22T07:56:59.884Z,16
2016-04-22T07:57:59.934Z,16
2016-04-22T07:58:59.999Z,16
2016-04-22T08:00:00.032Z,16
2016-04-22T08:01:00.098Z,20
2016-04-22T08:02:00.115Z,20
2016-04-22T08:03:00.196Z,16
2016-04-22T08:04:00.262Z,12
2016-04-22T08:05:00.265Z,16
2016-04-22T08:06:00.329Z,20
2016-04-22T08:07:00.395Z,28
2016-04-22T08:08:00.413Z,24
2016-04-22T08:09:00.478Z,20
2016-04-22T08:10:00.544Z,20
2016-04-22T08:11:00.577Z,20
2016-04-22T08:12:00.642Z,28
2016-04-22T08:13:00.677Z,24
2016-04-22T08:14:00.757Z,16
2016-04-22T08:15:00.807Z,16
2016-04-22T08:16:00.857Z,16
2016-04-22T08:17:00.921Z,16
2016-04-22T08:18:01.112Z,20
2016-04-22T08:19:00.990Z,16
2016-04-22T08:20:01.055Z,20
2016-04-22T08:21:01.120Z,20
2016-04-22T08:22:01.154Z,16
2016-04-22T08:23:01.204Z,20
2016-04-22T08:24:01.268Z,16
2016-04-22T08:25:01.318Z,12
2016-04-22T08:26:01.352Z,12
2016-04-22T08:27:01.417Z,16
2016-04-22T08:28:01.467Z,16
2016-04-22T08:29:01.548Z,20
2016-04-22T08:30:01.550Z,28
2016-04-22T08:31:01.615Z,20
2016-04-22T08:32:01.650Z,16
2016-04-22T08:33:01.698Z,20
2016-04-22T08:34:01.780Z,20
2016-04-22T08:35:01.798Z,16
2016-04-22T08:36:01.863Z,20
2016-04-22T08:37:01.914Z,24
2016-04-22T08:38:01.978Z,20
2016-04-22T08:39:01.824Z,28
2016-04-22T08:40:02.061Z,32
2016-04-22T08:41:02.127Z,20
2016-04-22T08:42:02.208Z,24
2016-04-22T08:43:02.226Z,20
2016-04-22T08:44:02.275Z,24
2016-04-22T08:45:02.341Z,20
2016-04-22T08:46:02.375Z,20
2016-04-22T08:47:02.424Z,20
2016-04-22T08:48:02.489Z,24
2016-04-22T08:49:02.524Z,32
2016-04-22T08:50:02.604Z,36
2016-04-22T08:51:02.622Z,32
2016-04-22T08:52:02.703Z,32
2016-04-22T08:53:02.753Z,28
2016-04-22T08:54:02.802Z,28
2016-04-22T08:55:02.821Z,24
2016-04-22T08:56:02.168Z,24
2016-04-22T08:57:02.935Z,24
2016-04-22T08:58:02.984Z,20
2016-04-22T08:59:03.065Z,24
2016-04-22T09:00:03.101Z,20
2016-04-22T09:01:03.149Z,24
2016-04-22T09:02:03.215Z,16
2016-04-22T09:03:03.248Z,24
2016-04-22T09:04:03.314Z,20
2016-04-22T09:05:03.364Z,24
2016-04-22T09:06:03.397Z,24
2016-04-22T09:07:03.494Z,24
2016-04-22T09:08:03.528Z,20
2016-04-22T09:09:03.546Z,24
2016-04-22T09:10:03.642Z,28
2016-04-22T09:11:03.676Z,20
2016-04-22T09:12:03.710Z,24
2016-04-22T09:13:03.775Z,28
2016-04-22T09:14:03.840Z,24
2016-04-22T09:15:03.874Z,28
2016-04-22T09:16:03.940Z,24
2016-04-22T09:17:03.989Z,20
2016-04-22T09:18:04.055Z,24
2016-04-22T09:19:04.088Z,24
2016-04-22T09:20:04.185Z,20
2016-04-22T09:21:04.188Z,20
2016-04-22T09:22:04.221Z,20
2016-04-22T09:23:04.318Z,20
2016-04-22T09:24:04.359Z,16
2016-04-22T09:25:04.423Z,20
2016-04-22T09:26:04.551Z,24
2016-04-22T09:27:04.508Z,24
2016-04-22T09:28:04.541Z,20
2016-04-22T09:29:04.592Z,24
2016-04-22T09:30:04.641Z,20
2016-04-22T09:31:04.924Z,20
2016-04-22T09:32:04.756Z,24
2016-04-22T09:33:04.789Z,20
2016-04-22T09:34:04.854Z,20
2016-04-22T09:35:04.905Z,20
2016-04-22T09:36:04.939Z,24
2016-04-22T09:37:05.003Z,20
2016-04-22T09:38:05.085Z,20
2016-04-22T09:39:05.119Z,16
2016-04-22T09:40:05.153Z,24
2016-04-22T09:41:05.233Z,28
2016-04-22T09:42:05.252Z,28
2016-04-22T09:43:05.317Z,24
2016-04-22T09:44:05.350Z,28
2016-04-22T09:45:05.400Z,28
2016-04-22T09:46:04.731Z,20
2016-04-22T09:47:05.516Z,24
2016-04-22T09:48:05.550Z,28
2016-04-22T09:49:05.614Z,24
2016-04-22T09:50:05.664Z,20
2016-04-22T09:51:05.713Z,20
2016-04-22T09:52:05.794Z,20
2016-04-22T09:53:05.843Z,24
2016-04-22T09:54:05.877Z,20
2016-04-22T09:55:05.912Z,20
2016-04-22T09:56:05.977Z,20
2016-04-22T09:57:06.027Z,20
2016-04-22T09:58:06.076Z,24
2016-04-22T09:59:06.141Z,24
2016-04-22T10:00:06.206Z,24
2016-04-22T10:01:06.084Z,20
2016-04-22T10:02:06.274Z,16
2016-04-22T10:03:06.339Z,20
2016-04-22T10:04:06.390Z,20
2016-04-22T10:05:06.422Z,20
2016-04-22T10:06:06.520Z,16
2016-04-22T10:07:06.522Z,16
2016-04-22T10:13:44.852Z,20
2016-04-22T10:14:44.902Z,20
2016-04-22T10:15:44.936Z,20
2016-04-22T10:16:44.971Z,20
2016-04-22T10:17:45.020Z,20
2016-04-22T10:18:45.132Z,24
2016-04-22T10:19:45.119Z,24
2016-04-22T10:20:45.185Z,20
2016-04-22T10:21:45.249Z,20
2016-04-22T10:22:45.268Z,20
2016-04-22T10:23:45.332Z,20
2016-04-22T10:24:45.367Z,20
2016-04-22T10:25:45.448Z,24
2016-04-22T10:26:45.512Z,20
2016-04-22T10:27:45.531Z,20
2016-04-22T10:28:45.612Z,16
2016-04-22T10:29:45.693Z,20
2016-04-22T10:30:45.680Z,20
2016-04-22T10:31:45.745Z,20
2016-04-22T10:32:45.654Z,20
2016-04-22T10:33:45.079Z,20
2016-04-22T10:34:45.895Z,24
2016-04-22T10:35:45.959Z,20
2016-04-22T10:36:46.008Z,20
2016-04-22T10:37:46.058Z,20
2016-04-22T10:38:46.092Z,20
2016-04-22T10:39:46.158Z,20
2016-04-22T10:40:46.238Z,20
2016-04-22T10:41:46.256Z,20
2016-04-22T10:42:46.291Z,20
2016-04-22T10:43:46.372Z,20
2016-04-22T10:44:46.452Z,20
2016-04-22T10:45:46.455Z,20
2016-04-22T10:46:46.535Z,20
2016-04-22T10:47:46.413Z,20
2016-04-22T10:48:46.619Z,20
2016-04-22T10:49:46.668Z,12
2016-04-22T10:50:46.718Z,12
2016-04-22T10:51:46.798Z,12
2016-04-22T10:52:46.692Z,16
2016-04-22T10:53:46.882Z,16
2016-04-22T10:54:46.948Z,20
2016-04-22T10:55:47.012Z,20
2016-04-22T10:56:47.015Z,20
2016-04-22T10:57:47.331Z,20
2016-04-22T10:58:47.130Z,16
2016-04-22T10:59:47.242Z,20
2016-04-22T11:00:46.479Z,20
2016-04-22T11:01:47.310Z,16
2016-04-22T11:02:47.344Z,16
2016-04-22T11:03:47.394Z,16
2016-04-22T11:04:47.442Z,16
2016-04-22T11:05:47.493Z,20
2016-04-22T11:06:47.528Z,16
2016-04-22T11:07:47.608Z,16
2016-04-22T11:08:47.625Z,16
2016-04-22T11:09:47.691Z,16
2016-04-22T11:10:47.772Z,12
2016-04-22T11:11:47.805Z,12
2016-04-22T11:12:47.855Z,12
2016-04-22T11:13:47.921Z,12
2016-04-22T11:14:47.220Z,12
2016-04-22T11:15:47.285Z,12
2016-04-22T11:16:48.069Z,8
2016-04-22T11:17:48.102Z,12
2016-04-22T11:18:48.168Z,8
2016-04-22T11:19:48.233Z,8
2016-04-22T11:20:48.252Z,8
2016-04-22T11:21:48.185Z,8
2016-04-22T11:22:48.389Z,12
2016-04-22T11:23:48.407Z,16
2016-04-22T11:24:48.442Z,12
2016-04-22T11:25:48.537Z,16
2016-04-22T11:26:48.603Z,16
2016-04-22T11:27:48.637Z,12
2016-04-22T11:28:48.656Z,16
2016-04-22T11:29:48.408Z,12
2016-04-22T11:30:48.801Z,12
2016-04-22T11:31:48.820Z,16
2016-04-22T11:32:48.870Z,16
2016-04-22T11:33:48.950Z,16
2016-04-22T11:34:48.983Z,12
2016-04-22T11:35:49.050Z,12
2016-04-22T11:36:49.083Z,16
2016-04-22T11:37:49.148Z,12
2016-04-22T11:38:49.166Z,16
2016-04-22T11:39:49.247Z,16
2016-04-22T11:40:49.313Z,12
2016-04-22T11:41:49.377Z,12
2016-04-22T11:42:49.396Z,12
2016-04-22T11:43:49.446Z,12
2016-04-22T11:44:49.511Z,12
2016-04-22T11:45:49.545Z,12
2016-04-22T11:46:49.578Z,12
2016-04-22T11:47:49.659Z,12
2016-04-22T11:48:49.693Z,12
2016-04-22T11:49:49.743Z,12
2016-04-22T11:50:49.823Z,12
2016-04-22T11:51:49.857Z,12
2016-04-22T11:52:49.923Z,12
2016-04-22T11:53:49.942Z,12
2016-04-22T11:54:49.990Z,12
2016-04-22T11:55:50.056Z,12
2016-04-22T11:56:50.105Z,8
2016-04-22T11:57:50.171Z,12
2016-04-22T11:58:50.236Z,12
2016-04-22T11:59:50.286Z,12
2016-04-22T12:00:50.320Z,12
2016-04-22T12:01:50.384Z,12
2016-04-22T12:02:50.434Z,8
2016-04-22T12:03:50.469Z,12
2016-04-22T12:04:50.549Z,8
2016-04-22T12:05:50.567Z,12
2016-04-22T12:06:50.648Z,12
2016-04-22T12:07:50.682Z,12
2016-04-22T12:08:50.732Z,12
2016-04-22T12:09:50.781Z,12
2016-04-22T12:10:50.862Z,12
2016-04-22T12:11:50.880Z,12
2016-04-22T12:12:50.945Z,12
2016-04-22T12:13:50.995Z,12
2016-04-22T12:14:51.107Z,12
2016-04-22T12:15:51.063Z,12
2016-04-22T12:16:51.144Z,12
2016-04-22T12:17:51.257Z,12
2016-04-22T12:18:51.274Z,12
2016-04-22T12:19:51.341Z,12
2016-04-22T12:20:51.328Z,8
2016-04-22T12:21:51.394Z,8
2016-04-22T12:22:51.522Z,12
2016-04-22T12:23:51.492Z,8
2016-04-22T12:24:51.573Z,8
2016-04-22T12:25:51.622Z,8
2016-04-22T12:26:51.672Z,8
2016-04-22T12:27:51.722Z,8
2016-04-22T12:28:51.756Z,8
2016-04-22T12:29:51.806Z,8
2016-04-22T12:30:51.886Z,8
2016-04-22T12:31:51.936Z,8
2016-04-22T12:32:51.985Z,8
2016-04-22T12:33:52.019Z,12
2016-04-22T12:34:52.085Z,12
2016-04-22T12:35:52.119Z,12
2016-04-22T12:36:52.169Z,12
2016-04-22T12:37:52.218Z,12
2016-04-22T12:38:52.283Z,12
2016-04-22T12:39:52.333Z,12
2016-04-22T12:40:52.382Z,12
2016-04-22T12:41:52.448Z,12
2016-04-22T12:42:52.496Z,8
2016-04-22T12:43:52.531Z,8
2016-04-22T12:44:52.581Z,12
2016-04-22T12:45:52.645Z,12
2016-04-22T12:46:52.664Z,12
2016-04-22T12:47:52.728Z,8
2016-04-22T12:48:52.794Z,8
2016-04-22T12:49:52.844Z,12
2016-04-22T12:50:52.722Z,8
2016-04-22T12:51:52.208Z,8
2016-04-22T12:52:52.853Z,8
2016-04-22T12:53:53.058Z,8
2016-04-22T12:54:53.107Z,8
2016-04-22T12:55:53.188Z,8
2016-04-22T12:56:53.191Z,8
2016-04-22T12:57:53.272Z,8
2016-04-22T12:58:53.290Z,8
2016-04-22T12:59:53.356Z,8
2016-04-22T13:00:53.389Z,8
2016-04-22T13:01:53.454Z,12
2016-04-22T13:02:53.519Z,12
2016-04-22T13:03:53.569Z,12
2016-04-22T13:04:53.702Z,12
2016-04-22T13:05:53.766Z,12
2016-04-22T13:06:53.723Z,12
2016-04-22T13:07:53.772Z,8
2016-04-22T13:08:53.837Z,8
2016-04-22T13:09:53.871Z,8
2016-04-22T13:10:53.937Z,8
2016-04-22T13:11:53.987Z,8
2016-04-22T13:12:54.020Z,8
2016-04-22T13:13:54.085Z,12
2016-04-22T13:14:54.135Z,8
2016-04-22T13:15:54.169Z,8
2016-04-22T13:16:54.234Z,8
2016-04-22T13:17:54.303Z,8
2016-04-22T13:18:54.323Z,8
2016-04-22T13:19:54.403Z,8
2016-04-22T13:20:54.452Z,12
2016-04-22T13:21:54.491Z,8
2016-04-22T13:22:53.807Z,8
2016-04-22T13:23:54.575Z,8
2016-04-22T13:24:54.624Z,8
2016-04-22T13:25:54.705Z,8
2016-04-22T13:26:54.739Z,12
2016-04-22T13:27:54.789Z,12
2016-04-22T13:28:54.874Z,12
2016-04-22T13:29:54.967Z,12
2016-04-22T13:30:55.045Z,12
2016-04-22T13:31:55.200Z,12
2016-04-22T13:32:55.261Z,12
2016-04-22T13:33:55.325Z,8
2016-04-22T13:34:55.406Z,12
2016-04-22T13:35:55.472Z,12
2016-04-22T13:36:55.552Z,12
2016-04-22T13:37:55.586Z,8
2016-04-22T13:38:55.662Z,12
2016-04-22T13:39:55.763Z,12
2016-04-22T13:40:55.773Z,12
2016-04-22T13:41:55.828Z,12
2016-04-22T13:42:55.914Z,12
2016-04-22T13:43:55.952Z,12
2016-04-22T13:44:55.988Z,12
2016-04-22T13:45:56.071Z,8
2016-04-22T13:46:56.122Z,12
2016-04-22T13:47:56.190Z,12
2016-04-22T13:48:56.224Z,12
2016-04-22T13:49:56.274Z,12
2016-04-22T13:50:56.325Z,12
2016-04-22T13:51:56.391Z,12
2016-04-22T13:52:56.410Z,12
2016-04-22T13:53:56.477Z,8
2016-04-22T13:54:56.558Z,8
2016-04-22T13:55:56.576Z,8
2016-04-22T13:56:56.625Z,8
2016-04-22T13:57:56.707Z,12
2016-04-22T13:58:56.725Z,16
2016-04-22T13:59:56.776Z,12
2016-04-22T14:00:56.872Z,12
2016-04-22T14:01:56.890Z,16
2016-04-22T14:02:56.956Z,12
2016-04-22T14:03:57.005Z,16
2016-04-22T14:04:57.039Z,12
2016-04-22T14:05:57.103Z,16
2016-04-22T14:06:57.138Z,16
2016-04-22T14:07:57.203Z,16
2016-04-22T14:08:57.269Z,16
2016-04-22T14:09:57.334Z,16
2016-04-22T14:10:57.336Z,16
2016-04-22T14:11:57.433Z,16
2016-04-22T14:12:57.498Z,16
2016-04-22T14:13:57.532Z,16
2016-04-22T14:14:57.550Z,12
2016-04-22T14:15:57.615Z,12
2016-04-22T14:16:57.680Z,12
2016-04-22T14:17:57.699Z,12
2016-04-22T14:18:57.764Z,12
2016-04-22T14:19:57.830Z,12
2016-04-22T14:20:57.862Z,12
2016-04-22T14:21:57.757Z,16
2016-04-22T14:22:58.009Z,16
2016-04-22T14:23:58.027Z,12
2016-04-22T14:24:58.066Z,16
2016-04-22T14:25:58.147Z,16
2016-04-22T14:26:58.243Z,16
2016-04-22T14:27:58.231Z,16
2016-04-22T14:28:58.265Z,12
2016-04-22T14:29:58.361Z,16
2016-04-22T14:30:58.379Z,16
2016-04-22T14:31:58.428Z,16
2016-04-22T14:32:58.509Z,16
2016-04-22T14:33:58.559Z,16
2016-04-22T14:34:58.592Z,16
2016-04-22T14:35:58.659Z,16
2016-04-22T14:36:58.552Z,16
2016-04-22T14:37:58.726Z,20